sensor_id;sensor_type;location;lat;lon;timestamp;temperature;humidity
21770;DHT22;11046;49.558;8.674;2023-06-19T00:01:59;22.60;49.50
21770;DHT22;11046;49.558;8.674;2023-06-19T00:05:00;22.50;49.60
21770;DHT22;11046;49.558;8.674;2023-06-19T00:08:00;22.40;49.50
21770;DHT22;11046;49.558;8.674;2023-06-19T00:11:03;22.40;49.40
21770;DHT22;11046;49.558;8.674;2023-06-19T00:14:04;22.40;49.40
21770;DHT22;11046;49.558;8.674;2023-06-19T00:17:05;22.40;49.40
21770;DHT22;11046;49.558;8.674;2023-06-19T00:20:07;22.40;49.70
21770;DHT22;11046;49.558;8.674;2023-06-19T00:23:08;22.40;50.00
21770;DHT22;11046;49.558;8.674;2023-06-19T00:26:11;22.30;50.20
21770;DHT22;11046;49.558;8.674;2023-06-19T00:29:15;22.30;50.50
21770;DHT22;11046;49.558;8.674;2023-06-19T00:32:15;22.20;50.80
21770;DHT22;11046;49.558;8.674;2023-06-19T00:35:16;22.10;50.90
21770;DHT22;11046;49.558;8.674;2023-06-19T00:38:18;22.10;51.00
21770;DHT22;11046;49.558;8.674;2023-06-19T00:41:20;22.10;51.20
21770;DHT22;11046;49.558;8.674;2023-06-19T00:44:21;22.00;51.40
21770;DHT22;11046;49.558;8.674;2023-06-19T00:47:22;21.90;51.50
21770;DHT22;11046;49.558;8.674;2023-06-19T00:50:22;21.80;51.70
21770;DHT22;11046;49.558;8.674;2023-06-19T00:53:24;21.80;51.90
21770;DHT22;11046;49.558;8.674;2023-06-19T00:56:26;21.60;52.20
21770;DHT22;11046;49.558;8.674;2023-06-19T00:59:26;21.60;52.30
21770;DHT22;11046;49.558;8.674;2023-06-19T01:02:27;21.50;52.50
21770;DHT22;11046;49.558;8.674;2023-06-19T01:05:28;21.40;52.60
21770;DHT22;11046;49.558;8.674;2023-06-19T01:11:54;21.40;53.30
21770;DHT22;11046;49.558;8.674;2023-06-19T01:15:02;21.40;53.00
21770;DHT22;11046;49.558;8.674;2023-06-19T01:18:04;21.30;53.30
21770;DHT22;11046;49.558;8.674;2023-06-19T01:21:15;21.20;53.40
21770;DHT22;11046;49.558;8.674;2023-06-19T01:24:16;21.20;53.90
21770;DHT22;11046;49.558;8.674;2023-06-19T01:27:17;21.10;53.70
21770;DHT22;11046;49.558;8.674;2023-06-19T01:30:19;21.10;53.80
21770;DHT22;11046;49.558;8.674;2023-06-19T01:33:28;21.00;54.00
21770;DHT22;11046;49.558;8.674;2023-06-19T01:36:29;21.00;54.30
21770;DHT22;11046;49.558;8.674;2023-06-19T01:39:34;20.90;54.20
21770;DHT22;11046;49.558;8.674;2023-06-19T01:42:37;20.80;54.50
21770;DHT22;11046;49.558;8.674;2023-06-19T01:45:39;20.70;54.70
21770;DHT22;11046;49.558;8.674;2023-06-19T01:48:40;20.70;54.60
21770;DHT22;11046;49.558;8.674;2023-06-19T01:51:41;20.70;54.60
21770;DHT22;11046;49.558;8.674;2023-06-19T01:54:41;20.80;54.50
21770;DHT22;11046;49.558;8.674;2023-06-19T01:57:42;20.80;54.40
21770;DHT22;11046;49.558;8.674;2023-06-19T02:00:43;20.80;54.40
21770;DHT22;11046;49.558;8.674;2023-06-19T02:03:43;20.80;54.60
21770;DHT22;11046;49.558;8.674;2023-06-19T02:06:44;20.80;54.90
21770;DHT22;11046;49.558;8.674;2023-06-19T02:09:45;20.80;55.20
21770;DHT22;11046;49.558;8.674;2023-06-19T02:12:45;20.90;55.60
21770;DHT22;11046;49.558;8.674;2023-06-19T02:15:46;21.00;55.90
21770;DHT22;11046;49.558;8.674;2023-06-19T02:18:46;21.10;55.80
21770;DHT22;11046;49.558;8.674;2023-06-19T02:21:47;21.20;55.70
21770;DHT22;11046;49.558;8.674;2023-06-19T02:24:48;21.30;55.70
21770;DHT22;11046;49.558;8.674;2023-06-19T02:27:48;21.40;55.80
21770;DHT22;11046;49.558;8.674;2023-06-19T02:30:49;21.40;55.60
21770;DHT22;11046;49.558;8.674;2023-06-19T02:33:50;21.40;55.50
21770;DHT22;11046;49.558;8.674;2023-06-19T02:36:53;21.40;55.60
21770;DHT22;11046;49.558;8.674;2023-06-19T02:39:54;21.40;55.80
21770;DHT22;11046;49.558;8.674;2023-06-19T02:42:54;21.50;55.80
21770;DHT22;11046;49.558;8.674;2023-06-19T02:45:55;21.50;55.80
21770;DHT22;11046;49.558;8.674;2023-06-19T02:48:55;21.60;55.90
21770;DHT22;11046;49.558;8.674;2023-06-19T02:51:56;21.50;56.00
21770;DHT22;11046;49.558;8.674;2023-06-19T02:54:57;21.60;56.10
21770;DHT22;11046;49.558;8.674;2023-06-19T02:57:57;21.70;56.10
21770;DHT22;11046;49.558;8.674;2023-06-19T03:00:58;21.70;56.20
21770;DHT22;11046;49.558;8.674;2023-06-19T03:03:58;21.70;56.40
21770;DHT22;11046;49.558;8.674;2023-06-19T03:06:59;21.80;56.40
21770;DHT22;11046;49.558;8.674;2023-06-19T03:10:00;21.90;56.40
21770;DHT22;11046;49.558;8.674;2023-06-19T03:13:00;21.80;56.50
21770;DHT22;11046;49.558;8.674;2023-06-19T03:16:01;21.90;56.60
21770;DHT22;11046;49.558;8.674;2023-06-19T03:19:02;21.90;56.70
21770;DHT22;11046;49.558;8.674;2023-06-19T03:22:03;21.90;56.90
21770;DHT22;11046;49.558;8.674;2023-06-19T03:25:04;21.80;57.00
21770;DHT22;11046;49.558;8.674;2023-06-19T03:28:05;21.80;57.40
21770;DHT22;11046;49.558;8.674;2023-06-19T03:31:05;21.70;57.70
21770;DHT22;11046;49.558;8.674;2023-06-19T03:34:06;21.80;58.00
21770;DHT22;11046;49.558;8.674;2023-06-19T03:37:09;21.70;58.10
21770;DHT22;11046;49.558;8.674;2023-06-19T03:40:10;21.80;58.30
21770;DHT22;11046;49.558;8.674;2023-06-19T03:43:15;21.80;58.70
21770;DHT22;11046;49.558;8.674;2023-06-19T03:46:18;21.60;59.00
21770;DHT22;11046;49.558;8.674;2023-06-19T03:49:18;21.60;59.30
21770;DHT22;11046;49.558;8.674;2023-06-19T03:52:19;21.60;59.70
21770;DHT22;11046;49.558;8.674;2023-06-19T03:55:20;21.50;60.40
21770;DHT22;11046;49.558;8.674;2023-06-19T03:58:20;21.40;60.80
21770;DHT22;11046;49.558;8.674;2023-06-19T04:01:21;21.30;62.20
21770;DHT22;11046;49.558;8.674;2023-06-19T04:04:23;21.30;61.50
21770;DHT22;11046;49.558;8.674;2023-06-19T04:07:23;21.20;61.70
21770;DHT22;11046;49.558;8.674;2023-06-19T04:10:24;21.20;62.20
21770;DHT22;11046;49.558;8.674;2023-06-19T04:13:24;21.20;62.50
21770;DHT22;11046;49.558;8.674;2023-06-19T04:16:26;21.20;62.50
21770;DHT22;11046;49.558;8.674;2023-06-19T04:19:27;21.20;62.50
21770;DHT22;11046;49.558;8.674;2023-06-19T04:22:27;21.30;62.50
21770;DHT22;11046;49.558;8.674;2023-06-19T04:25:28;21.30;62.60
21770;DHT22;11046;49.558;8.674;2023-06-19T04:28:30;21.30;62.60
21770;DHT22;11046;49.558;8.674;2023-06-19T04:31:31;21.30;63.60
21770;DHT22;11046;49.558;8.674;2023-06-19T04:34:31;21.30;63.10
21770;DHT22;11046;49.558;8.674;2023-06-19T04:37:32;21.30;63.30
21770;DHT22;11046;49.558;8.674;2023-06-19T04:40:33;21.30;63.40
21770;DHT22;11046;49.558;8.674;2023-06-19T04:43:33;21.20;63.60
21770;DHT22;11046;49.558;8.674;2023-06-19T04:46:34;21.30;63.80
21770;DHT22;11046;49.558;8.674;2023-06-19T04:49:35;21.20;63.80
21770;DHT22;11046;49.558;8.674;2023-06-19T04:52:35;21.30;64.00
21770;DHT22;11046;49.558;8.674;2023-06-19T04:55:36;21.40;64.10
21770;DHT22;11046;49.558;8.674;2023-06-19T04:58:38;21.50;64.20
21770;DHT22;11046;49.558;8.674;2023-06-19T05:01:46;21.50;64.40
21770;DHT22;11046;49.558;8.674;2023-06-19T05:04:46;21.40;64.70
21770;DHT22;11046;49.558;8.674;2023-06-19T05:07:47;21.40;64.90
21770;DHT22;11046;49.558;8.674;2023-06-19T05:10:47;21.60;64.90
21770;DHT22;11046;49.558;8.674;2023-06-19T05:13:48;21.60;64.90
21770;DHT22;11046;49.558;8.674;2023-06-19T05:16:49;21.40;65.00
21770;DHT22;11046;49.558;8.674;2023-06-19T05:19:49;21.60;65.20
21770;DHT22;11046;49.558;8.674;2023-06-19T05:22:50;21.60;65.00
21770;DHT22;11046;49.558;8.674;2023-06-19T05:25:51;21.70;65.20
21770;DHT22;11046;49.558;8.674;2023-06-19T05:28:52;21.80;65.00
21770;DHT22;11046;49.558;8.674;2023-06-19T05:31:52;21.80;64.70
21770;DHT22;11046;49.558;8.674;2023-06-19T05:34:53;21.80;64.90
21770;DHT22;11046;49.558;8.674;2023-06-19T05:37:54;21.90;65.00
21770;DHT22;11046;49.558;8.674;2023-06-19T05:40:54;22.10;64.90
21770;DHT22;11046;49.558;8.674;2023-06-19T05:43:55;22.20;64.60
21770;DHT22;11046;49.558;8.674;2023-06-19T05:46:55;22.20;64.70
21770;DHT22;11046;49.558;8.674;2023-06-19T05:49:57;22.30;64.60
21770;DHT22;11046;49.558;8.674;2023-06-19T05:52:57;22.40;64.60
21770;DHT22;11046;49.558;8.674;2023-06-19T05:55:58;22.40;64.60
21770;DHT22;11046;49.558;8.674;2023-06-19T05:58:59;22.50;64.50
21770;DHT22;11046;49.558;8.674;2023-06-19T06:02:03;22.60;64.40
21770;DHT22;11046;49.558;8.674;2023-06-19T06:05:04;22.60;64.50
21770;DHT22;11046;49.558;8.674;2023-06-19T06:08:05;22.80;64.50
21770;DHT22;11046;49.558;8.674;2023-06-19T06:11:05;23.00;64.10
21770;DHT22;11046;49.558;8.674;2023-06-19T06:14:06;23.10;63.80
21770;DHT22;11046;49.558;8.674;2023-06-19T06:17:06;23.10;63.80
21770;DHT22;11046;49.558;8.674;2023-06-19T06:20:07;23.10;63.70
21770;DHT22;11046;49.558;8.674;2023-06-19T06:23:11;23.20;63.80
21770;DHT22;11046;49.558;8.674;2023-06-19T06:26:12;23.40;63.50
21770;DHT22;11046;49.558;8.674;2023-06-19T06:29:12;23.60;63.20
21770;DHT22;11046;49.558;8.674;2023-06-19T06:32:13;23.80;62.80
21770;DHT22;11046;49.558;8.674;2023-06-19T06:35:14;24.00;62.40
21770;DHT22;11046;49.558;8.674;2023-06-19T06:38:14;24.10;62.30
21770;DHT22;11046;49.558;8.674;2023-06-19T06:41:15;24.30;62.10
21770;DHT22;11046;49.558;8.674;2023-06-19T06:44:16;24.50;61.70
21770;DHT22;11046;49.558;8.674;2023-06-19T06:47:16;24.80;61.20
21770;DHT22;11046;49.558;8.674;2023-06-19T06:50:17;25.00;60.70
21770;DHT22;11046;49.558;8.674;2023-06-19T06:53:17;25.10;60.50
21770;DHT22;11046;49.558;8.674;2023-06-19T06:56:18;25.40;60.20
21770;DHT22;11046;49.558;8.674;2023-06-19T06:59:19;25.60;59.70
21770;DHT22;11046;49.558;8.674;2023-06-19T07:02:19;25.80;59.50
21770;DHT22;11046;49.558;8.674;2023-06-19T07:05:20;26.00;59.10
21770;DHT22;11046;49.558;8.674;2023-06-19T07:08:21;26.20;58.80
21770;DHT22;11046;49.558;8.674;2023-06-19T07:11:21;26.30;58.20
21770;DHT22;11046;49.558;8.674;2023-06-19T07:14:22;26.40;58.00
21770;DHT22;11046;49.558;8.674;2023-06-19T07:17:22;26.50;57.60
21770;DHT22;11046;49.558;8.674;2023-06-19T07:20:23;26.60;57.60
21770;DHT22;11046;49.558;8.674;2023-06-19T07:23:24;26.80;57.50
21770;DHT22;11046;49.558;8.674;2023-06-19T07:26:24;27.00;57.10
21770;DHT22;11046;49.558;8.674;2023-06-19T07:29:25;27.20;56.80
21770;DHT22;11046;49.558;8.674;2023-06-19T07:32:26;27.50;56.10
21770;DHT22;11046;49.558;8.674;2023-06-19T07:35:27;27.70;55.80
21770;DHT22;11046;49.558;8.674;2023-06-19T07:38:28;28.00;55.30
21770;DHT22;11046;49.558;8.674;2023-06-19T07:41:28;28.10;54.80
21770;DHT22;11046;49.558;8.674;2023-06-19T07:44:29;28.20;54.80
21770;DHT22;11046;49.558;8.674;2023-06-19T07:47:29;28.40;54.70
21770;DHT22;11046;49.558;8.674;2023-06-19T07:50:30;28.60;54.30
21770;DHT22;11046;49.558;8.674;2023-06-19T07:53:32;28.70;54.00
21770;DHT22;11046;49.558;8.674;2023-06-19T07:56:32;29.00;53.80
21770;DHT22;11046;49.558;8.674;2023-06-19T07:59:33;29.00;52.90
21770;DHT22;11046;49.558;8.674;2023-06-19T08:02:34;28.70;53.10
21770;DHT22;11046;49.558;8.674;2023-06-19T08:05:36;28.20;53.40
21770;DHT22;11046;49.558;8.674;2023-06-19T08:08:36;27.80;54.10
21770;DHT22;11046;49.558;8.674;2023-06-19T08:11:37;27.70;54.40
21770;DHT22;11046;49.558;8.674;2023-06-19T08:14:37;27.50;54.80
21770;DHT22;11046;49.558;8.674;2023-06-19T08:17:39;27.40;55.20
21770;DHT22;11046;49.558;8.674;2023-06-19T08:20:39;27.20;55.30
21770;DHT22;11046;49.558;8.674;2023-06-19T08:23:40;27.00;55.60
21770;DHT22;11046;49.558;8.674;2023-06-19T08:26:43;26.80;55.80
21770;DHT22;11046;49.558;8.674;2023-06-19T08:29:44;26.60;55.90
21770;DHT22;11046;49.558;8.674;2023-06-19T08:32:46;26.40;56.10
21770;DHT22;11046;49.558;8.674;2023-06-19T08:35:47;26.10;56.30
21770;DHT22;11046;49.558;8.674;2023-06-19T08:38:50;25.90;56.70
21770;DHT22;11046;49.558;8.674;2023-06-19T08:41:52;25.90;56.90
21770;DHT22;11046;49.558;8.674;2023-06-19T08:44:56;25.80;57.20
21770;DHT22;11046;49.558;8.674;2023-06-19T08:48:00;25.60;57.60
21770;DHT22;11046;49.558;8.674;2023-06-19T08:51:04;25.60;57.90
21770;DHT22;11046;49.558;8.674;2023-06-19T08:54:06;25.70;58.30
21770;DHT22;11046;49.558;8.674;2023-06-19T08:57:10;25.80;58.30
21770;DHT22;11046;49.558;8.674;2023-06-19T09:00:12;26.20;58.30
21770;DHT22;11046;49.558;8.674;2023-06-19T09:03:22;26.80;57.60
21770;DHT22;11046;49.558;8.674;2023-06-19T09:06:26;27.30;57.20
21770;DHT22;11046;49.558;8.674;2023-06-19T09:09:27;27.70;56.30
21770;DHT22;11046;49.558;8.674;2023-06-19T09:12:28;27.90;55.60
21770;DHT22;11046;49.558;8.674;2023-06-19T09:15:37;27.50;55.50
21770;DHT22;11046;49.558;8.674;2023-06-19T09:18:47;27.30;55.70
21770;DHT22;11046;49.558;8.674;2023-06-19T09:21:51;27.20;55.80
21770;DHT22;11046;49.558;8.674;2023-06-19T09:24:52;27.20;56.10
21770;DHT22;11046;49.558;8.674;2023-06-19T09:27:54;27.10;56.10
21770;DHT22;11046;49.558;8.674;2023-06-19T09:33:56;28.10;55.50
21770;DHT22;11046;49.558;8.674;2023-06-19T09:36:59;28.70;54.80
21770;DHT22;11046;49.558;8.674;2023-06-19T09:40:04;29.10;53.90
21770;DHT22;11046;49.558;8.674;2023-06-19T09:43:11;29.00;53.50
21770;DHT22;11046;49.558;8.674;2023-06-19T09:46:14;28.90;53.90
21770;DHT22;11046;49.558;8.674;2023-06-19T09:49:16;29.00;53.90
21770;DHT22;11046;49.558;8.674;2023-06-19T09:52:19;28.70;53.40
21770;DHT22;11046;49.558;8.674;2023-06-19T09:55:22;28.40;53.90
21770;DHT22;11046;49.558;8.674;2023-06-19T09:58:24;28.50;53.90
21770;DHT22;11046;49.558;8.674;2023-06-19T10:01:28;28.50;54.00
21770;DHT22;11046;49.558;8.674;2023-06-19T10:04:29;28.70;53.80
21770;DHT22;11046;49.558;8.674;2023-06-19T10:07:35;28.80;53.30
21770;DHT22;11046;49.558;8.674;2023-06-19T10:10:36;28.70;53.60
21770;DHT22;11046;49.558;8.674;2023-06-19T10:13:39;29.00;54.10
21770;DHT22;11046;49.558;8.674;2023-06-19T10:16:41;29.40;53.10
21770;DHT22;11046;49.558;8.674;2023-06-19T10:19:49;29.60;52.40
21770;DHT22;11046;49.558;8.674;2023-06-19T10:23:12;29.70;52.10
21770;DHT22;11046;49.558;8.674;2023-06-19T10:26:16;29.80;51.70
21770;DHT22;11046;49.558;8.674;2023-06-19T10:29:17;29.80;51.50
21770;DHT22;11046;49.558;8.674;2023-06-19T10:32:18;29.90;51.40
21770;DHT22;11046;49.558;8.674;2023-06-19T10:35:19;29.70;51.50
21770;DHT22;11046;49.558;8.674;2023-06-19T10:38:22;30.10;51.50
21770;DHT22;11046;49.558;8.674;2023-06-19T10:41:25;30.30;51.10
21770;DHT22;11046;49.558;8.674;2023-06-19T10:44:26;30.80;50.50
21770;DHT22;11046;49.558;8.674;2023-06-19T10:47:27;31.10;49.90
21770;DHT22;11046;49.558;8.674;2023-06-19T10:50:28;31.20;49.40
21770;DHT22;11046;49.558;8.674;2023-06-19T10:53:33;31.30;48.90
21770;DHT22;11046;49.558;8.674;2023-06-19T10:56:34;31.30;48.50
21770;DHT22;11046;49.558;8.674;2023-06-19T10:59:35;31.50;48.60
21770;DHT22;11046;49.558;8.674;2023-06-19T11:02:35;31.70;48.10
21770;DHT22;11046;49.558;8.674;2023-06-19T11:05:43;32.00;48.00
21770;DHT22;11046;49.558;8.674;2023-06-19T11:08:51;32.40;46.90
21770;DHT22;11046;49.558;8.674;2023-06-19T11:11:51;32.50;46.60
21770;DHT22;11046;49.558;8.674;2023-06-19T11:14:52;32.40;46.70
21770;DHT22;11046;49.558;8.674;2023-06-19T11:17:53;32.40;46.50
21770;DHT22;11046;49.558;8.674;2023-06-19T11:20:54;32.40;46.40
21770;DHT22;11046;49.558;8.674;2023-06-19T11:23:57;32.50;46.10
21770;DHT22;11046;49.558;8.674;2023-06-19T11:26:58;32.70;45.60
21770;DHT22;11046;49.558;8.674;2023-06-19T11:29:59;33.00;45.20
21770;DHT22;11046;49.558;8.674;2023-06-19T11:33:00;33.10;45.00
21770;DHT22;11046;49.558;8.674;2023-06-19T11:36:02;33.20;44.90
21770;DHT22;11046;49.558;8.674;2023-06-19T11:39:05;33.10;45.00
21770;DHT22;11046;49.558;8.674;2023-06-19T11:42:09;33.20;44.70
21770;DHT22;11046;49.558;8.674;2023-06-19T11:45:11;33.30;44.00
21770;DHT22;11046;49.558;8.674;2023-06-19T11:48:11;33.30;43.60
21770;DHT22;11046;49.558;8.674;2023-06-19T11:51:13;33.20;43.50
21770;DHT22;11046;49.558;8.674;2023-06-19T11:54:17;33.20;43.70
21770;DHT22;11046;49.558;8.674;2023-06-19T11:57:18;33.20;43.60
21770;DHT22;11046;49.558;8.674;2023-06-19T12:00:19;33.10;44.00
21770;DHT22;11046;49.558;8.674;2023-06-19T12:03:19;33.10;43.90
21770;DHT22;11046;49.558;8.674;2023-06-19T12:06:20;33.10;43.70
21770;DHT22;11046;49.558;8.674;2023-06-19T12:09:21;33.30;43.80
21770;DHT22;11046;49.558;8.674;2023-06-19T12:12:22;33.70;43.40
21770;DHT22;11046;49.558;8.674;2023-06-19T12:15:24;33.90;42.80
21770;DHT22;11046;49.558;8.674;2023-06-19T12:18:25;33.80;42.50
21770;DHT22;11046;49.558;8.674;2023-06-19T12:21:25;33.80;42.80
21770;DHT22;11046;49.558;8.674;2023-06-19T12:24:26;33.90;42.30
21770;DHT22;11046;49.558;8.674;2023-06-19T12:27:26;33.70;42.10
21770;DHT22;11046;49.558;8.674;2023-06-19T12:30:27;33.50;42.40
21770;DHT22;11046;49.558;8.674;2023-06-19T12:33:27;33.20;42.90
21770;DHT22;11046;49.558;8.674;2023-06-19T12:36:31;33.00;43.20
21770;DHT22;11046;49.558;8.674;2023-06-19T12:39:32;32.80;43.60
21770;DHT22;11046;49.558;8.674;2023-06-19T12:42:33;32.80;43.80
21770;DHT22;11046;49.558;8.674;2023-06-19T12:45:33;32.70;43.90
21770;DHT22;11046;49.558;8.674;2023-06-19T12:48:34;32.70;44.00
21770;DHT22;11046;49.558;8.674;2023-06-19T12:51:35;32.90;44.10
21770;DHT22;11046;49.558;8.674;2023-06-19T12:54:35;33.00;43.90
21770;DHT22;11046;49.558;8.674;2023-06-19T12:57:37;33.00;43.30
21770;DHT22;11046;49.558;8.674;2023-06-19T13:00:37;33.10;43.20
21770;DHT22;11046;49.558;8.674;2023-06-19T13:03:38;33.10;43.70
21770;DHT22;11046;49.558;8.674;2023-06-19T13:06:39;33.20;43.70
21770;DHT22;11046;49.558;8.674;2023-06-19T13:09:39;33.50;43.70
21770;DHT22;11046;49.558;8.674;2023-06-19T13:12:40;33.80;43.20
21770;DHT22;11046;49.558;8.674;2023-06-19T13:15:40;33.90;42.70
21770;DHT22;11046;49.558;8.674;2023-06-19T13:18:41;33.80;42.60
21770;DHT22;11046;49.558;8.674;2023-06-19T13:21:43;33.80;42.70
21770;DHT22;11046;49.558;8.674;2023-06-19T13:24:43;34.00;43.40
21770;DHT22;11046;49.558;8.674;2023-06-19T13:27:44;34.20;42.40
21770;DHT22;11046;49.558;8.674;2023-06-19T13:30:44;34.30;42.40
21770;DHT22;11046;49.558;8.674;2023-06-19T13:33:45;34.40;42.00
21770;DHT22;11046;49.558;8.674;2023-06-19T13:36:45;34.30;41.60
21770;DHT22;11046;49.558;8.674;2023-06-19T13:39:47;34.40;41.50
21770;DHT22;11046;49.558;8.674;2023-06-19T13:42:48;34.20;41.10
21770;DHT22;11046;49.558;8.674;2023-06-19T13:45:49;33.90;41.60
21770;DHT22;11046;49.558;8.674;2023-06-19T13:48:50;33.90;41.70
21770;DHT22;11046;49.558;8.674;2023-06-19T13:51:51;34.00;41.90
21770;DHT22;11046;49.558;8.674;2023-06-19T13:54:52;34.00;42.10
21770;DHT22;11046;49.558;8.674;2023-06-19T13:57:52;33.90;41.70
21770;DHT22;11046;49.558;8.674;2023-06-19T14:00:53;33.50;41.80
21770;DHT22;11046;49.558;8.674;2023-06-19T14:03:53;33.40;41.80
21770;DHT22;11046;49.558;8.674;2023-06-19T14:06:54;33.40;42.00
21770;DHT22;11046;49.558;8.674;2023-06-19T14:09:55;33.30;42.10
21770;DHT22;11046;49.558;8.674;2023-06-19T14:12:58;33.10;42.20
21770;DHT22;11046;49.558;8.674;2023-06-19T14:15:59;32.90;42.40
21770;DHT22;11046;49.558;8.674;2023-06-19T14:18:59;32.60;42.60
21770;DHT22;11046;49.558;8.674;2023-06-19T14:22:00;32.40;42.80
21770;DHT22;11046;49.558;8.674;2023-06-19T14:25:02;32.40;43.00
21770;DHT22;11046;49.558;8.674;2023-06-19T14:28:03;32.50;42.90
21770;DHT22;11046;49.558;8.674;2023-06-19T14:31:05;32.70;43.00
21770;DHT22;11046;49.558;8.674;2023-06-19T14:34:06;32.80;42.90
21770;DHT22;11046;49.558;8.674;2023-06-19T14:37:06;32.90;42.70
21770;DHT22;11046;49.558;8.674;2023-06-19T14:40:07;32.80;42.70
21770;DHT22;11046;49.558;8.674;2023-06-19T14:43:08;32.70;42.50
21770;DHT22;11046;49.558;8.674;2023-06-19T14:46:11;32.60;42.60
21770;DHT22;11046;49.558;8.674;2023-06-19T14:49:12;32.40;42.60
21770;DHT22;11046;49.558;8.674;2023-06-19T14:52:13;32.20;42.90
21770;DHT22;11046;49.558;8.674;2023-06-19T14:55:16;32.30;43.40
21770;DHT22;11046;49.558;8.674;2023-06-19T14:58:17;32.40;43.30
21770;DHT22;11046;49.558;8.674;2023-06-19T15:01:17;32.70;43.50
21770;DHT22;11046;49.558;8.674;2023-06-19T15:04:18;32.90;43.10
21770;DHT22;11046;49.558;8.674;2023-06-19T15:07:18;33.20;43.00
21770;DHT22;11046;49.558;8.674;2023-06-19T15:10:19;33.20;42.70
21770;DHT22;11046;49.558;8.674;2023-06-19T15:13:20;33.20;42.60
21770;DHT22;11046;49.558;8.674;2023-06-19T15:16:20;32.90;42.80
21770;DHT22;11046;49.558;8.674;2023-06-19T15:19:22;32.60;43.00
21770;DHT22;11046;49.558;8.674;2023-06-19T15:22:24;32.40;43.00
21770;DHT22;11046;49.558;8.674;2023-06-19T15:25:24;32.40;43.10
21770;DHT22;11046;49.558;8.674;2023-06-19T15:28:25;32.20;43.10
21770;DHT22;11046;49.558;8.674;2023-06-19T15:31:26;32.20;43.20
21770;DHT22;11046;49.558;8.674;2023-06-19T15:34:26;32.20;43.20
21770;DHT22;11046;49.558;8.674;2023-06-19T15:37:27;31.90;43.40
21770;DHT22;11046;49.558;8.674;2023-06-19T15:40:28;31.90;43.40
21770;DHT22;11046;49.558;8.674;2023-06-19T15:43:29;31.90;43.40
21770;DHT22;11046;49.558;8.674;2023-06-19T15:46:31;31.90;43.40
21770;DHT22;11046;49.558;8.674;2023-06-19T15:49:31;31.90;43.50
21770;DHT22;11046;49.558;8.674;2023-06-19T15:52:32;31.70;43.60
21770;DHT22;11046;49.558;8.674;2023-06-19T15:55:32;31.60;43.70
21770;DHT22;11046;49.558;8.674;2023-06-19T15:58:33;31.50;44.00
21770;DHT22;11046;49.558;8.674;2023-06-19T16:01:34;31.50;44.10
21770;DHT22;11046;49.558;8.674;2023-06-19T16:04:34;31.60;44.00
21770;DHT22;11046;49.558;8.674;2023-06-19T16:07:35;31.80;44.20
21770;DHT22;11046;49.558;8.674;2023-06-19T16:10:35;31.90;44.20
21770;DHT22;11046;49.558;8.674;2023-06-19T16:13:36;31.90;44.40
21770;DHT22;11046;49.558;8.674;2023-06-19T16:16:37;32.00;44.00
21770;DHT22;11046;49.558;8.674;2023-06-19T16:19:37;32.10;43.90
21770;DHT22;11046;49.558;8.674;2023-06-19T16:22:39;31.90;44.20
21770;DHT22;11046;49.558;8.674;2023-06-19T16:25:39;31.80;44.70
21770;DHT22;11046;49.558;8.674;2023-06-19T16:28:40;31.80;44.20
21770;DHT22;11046;49.558;8.674;2023-06-19T16:31:40;31.80;44.60
21770;DHT22;11046;49.558;8.674;2023-06-19T16:34:42;31.70;45.20
21770;DHT22;11046;49.558;8.674;2023-06-19T16:37:43;31.40;44.70
21770;DHT22;11046;49.558;8.674;2023-06-19T16:40:44;31.30;44.80
21770;DHT22;11046;49.558;8.674;2023-06-19T16:43:44;31.20;44.90
21770;DHT22;11046;49.558;8.674;2023-06-19T16:46:45;31.10;45.00
21770;DHT22;11046;49.558;8.674;2023-06-19T16:49:45;31.10;45.10
21770;DHT22;11046;49.558;8.674;2023-06-19T16:52:46;31.20;45.10
21770;DHT22;11046;49.558;8.674;2023-06-19T16:55:49;31.10;44.90
21770;DHT22;11046;49.558;8.674;2023-06-19T16:58:49;31.00;44.80
21770;DHT22;11046;49.558;8.674;2023-06-19T17:01:50;30.90;44.90
21770;DHT22;11046;49.558;8.674;2023-06-19T17:04:51;30.80;45.00
21770;DHT22;11046;49.558;8.674;2023-06-19T17:07:51;30.80;45.40
21770;DHT22;11046;49.558;8.674;2023-06-19T17:10:52;30.70;45.30
21770;DHT22;11046;49.558;8.674;2023-06-19T17:13:53;30.70;45.20
21770;DHT22;11046;49.558;8.674;2023-06-19T17:16:53;30.60;45.60
21770;DHT22;11046;49.558;8.674;2023-06-19T17:19:55;30.50;45.80
21770;DHT22;11046;49.558;8.674;2023-06-19T17:22:59;30.40;45.90
21770;DHT22;11046;49.558;8.674;2023-06-19T17:26:03;30.30;46.20
21770;DHT22;11046;49.558;8.674;2023-06-19T17:29:04;30.20;46.30
21770;DHT22;11046;49.558;8.674;2023-06-19T17:32:05;30.10;47.10
21770;DHT22;11046;49.558;8.674;2023-06-19T17:35:07;30.00;46.50
21770;DHT22;11046;49.558;8.674;2023-06-19T17:38:09;29.90;46.70
21770;DHT22;11046;49.558;8.674;2023-06-19T17:41:09;29.80;46.90
21770;DHT22;11046;49.558;8.674;2023-06-19T17:44:10;29.60;47.10
21770;DHT22;11046;49.558;8.674;2023-06-19T17:47:11;29.60;47.40
21770;DHT22;11046;49.558;8.674;2023-06-19T17:50:13;29.50;47.70
21770;DHT22;11046;49.558;8.674;2023-06-19T17:53:13;29.50;47.90
21770;DHT22;11046;49.558;8.674;2023-06-19T17:56:15;29.50;47.90
21770;DHT22;11046;49.558;8.674;2023-06-19T17:59:16;29.40;47.80
21770;DHT22;11046;49.558;8.674;2023-06-19T18:02:17;29.30;48.10
21770;DHT22;11046;49.558;8.674;2023-06-19T18:05:18;29.20;48.40
21770;DHT22;11046;49.558;8.674;2023-06-19T18:08:18;29.10;48.60
21770;DHT22;11046;49.558;8.674;2023-06-19T18:11:19;29.20;48.60
21770;DHT22;11046;49.558;8.674;2023-06-19T18:14:19;29.20;48.60
21770;DHT22;11046;49.558;8.674;2023-06-19T18:17:25;29.10;48.90
21770;DHT22;11046;49.558;8.674;2023-06-19T18:20:25;29.10;49.20
21770;DHT22;11046;49.558;8.674;2023-06-19T18:23:26;29.00;49.40
21770;DHT22;11046;49.558;8.674;2023-06-19T18:26:26;28.90;49.80
21770;DHT22;11046;49.558;8.674;2023-06-19T18:29:27;28.70;50.20
21770;DHT22;11046;49.558;8.674;2023-06-19T18:32:31;28.60;50.80
21770;DHT22;11046;49.558;8.674;2023-06-19T18:35:31;28.40;51.00
21770;DHT22;11046;49.558;8.674;2023-06-19T18:38:33;28.20;51.10
21770;DHT22;11046;49.558;8.674;2023-06-19T18:41:33;28.10;51.40
21770;DHT22;11046;49.558;8.674;2023-06-19T18:44:34;28.00;51.70
21770;DHT22;11046;49.558;8.674;2023-06-19T18:47:35;27.90;51.80
21770;DHT22;11046;49.558;8.674;2023-06-19T18:50:35;27.80;52.00
21770;DHT22;11046;49.558;8.674;2023-06-19T18:53:36;27.60;52.20
21770;DHT22;11046;49.558;8.674;2023-06-19T18:56:37;27.50;52.50
21770;DHT22;11046;49.558;8.674;2023-06-19T18:59:39;27.40;52.80
21770;DHT22;11046;49.558;8.674;2023-06-19T19:02:40;27.20;53.00
21770;DHT22;11046;49.558;8.674;2023-06-19T19:05:40;27.10;53.10
21770;DHT22;11046;49.558;8.674;2023-06-19T19:08:41;27.10;53.20
21770;DHT22;11046;49.558;8.674;2023-06-19T19:11:41;27.00;53.30